sensor_id;sensor_type;location;lat;lon;timestamp;P1;durP1;ratioP1;P2;durP2;ratioP2
41897;SDS011;27576;53.366;-1.498;2024-03-17T00:00:19;36.35;;;24.65;;
41897;SDS011;27576;53.366;-1.498;2024-03-17T00:02:45;37.72;;;22.45;;
41897;SDS011;27576;53.366;-1.498;2024-03-17T00:05:12;43.15;;;24.33;;
41897;SDS011;27576;53.366;-1.498;2024-03-17T00:07:38;52.03;;;26.65;;
41897;SDS011;27576;53.366;-1.498;2024-03-17T00:10:06;39.63;;;23.42;;
41897;SDS011;27576;53.366;-1.498;2024-03-17T00:12:33;43.85;;;24.45;;
41897;SDS011;27576;53.366;-1.498;2024-03-17T00:14:58;44.22;;;24.55;;
41897;SDS011;27576;53.366;-1.498;2024-03-17T00:17:24;35.80;;;22.85;;
41897;SDS011;27576;53.366;-1.498;2024-03-17T00:19:49;51.40;;;26.20;;
41897;SDS011;27576;53.366;-1.498;2024-03-17T00:22:15;51.65;;;26.65;;
41897;SDS011;27576;53.366;-1.498;2024-03-17T00:24:40;43.70;;;26.13;;
41897;SDS011;27576;53.366;-1.498;2024-03-17T00:27:08;44.50;;;25.45;;
41897;SDS011;27576;53.366;-1.498;2024-03-17T00:29:33;50.30;;;25.48;;
41897;SDS011;27576;53.366;-1.498;2024-03-17T00:31:58;47.53;;;30.38;;
41897;SDS011;27576;53.366;-1.498;2024-03-17T00:34:24;47.95;;;26.38;;
41897;SDS011;27576;53.366;-1.498;2024-03-17T00:36:49;55.35;;;27.95;;
41897;SDS011;27576;53.366;-1.498;2024-03-17T00:39:16;46.60;;;27.13;;
41897;SDS011;27576;53.366;-1.498;2024-03-17T00:41:41;51.50;;;28.77;;
41897;SDS011;27576;53.366;-1.498;2024-03-17T00:44:07;50.15;;;27.77;;
41897;SDS011;27576;53.366;-1.498;2024-03-17T00:46:32;52.70;;;27.52;;
41897;SDS011;27576;53.366;-1.498;2024-03-17T00:48:58;47.97;;;25.75;;
41897;SDS011;27576;53.366;-1.498;2024-03-17T00:51:27;49.17;;;27.13;;
41897;SDS011;27576;53.366;-1.498;2024-03-17T00:53:52;52.78;;;28.55;;
41897;SDS011;27576;53.366;-1.498;2024-03-17T00:56:18;53.00;;;30.83;;
41897;SDS011;27576;53.366;-1.498;2024-03-17T00:58:43;58.17;;;30.33;;
41897;SDS011;27576;53.366;-1.498;2024-03-17T01:01:10;57.75;;;31.13;;
41897;SDS011;27576;53.366;-1.498;2024-03-17T01:03:36;47.63;;;27.45;;
41897;SDS011;27576;53.366;-1.498;2024-03-17T01:06:04;51.30;;;29.10;;
41897;SDS011;27576;53.366;-1.498;2024-03-17T01:08:30;56.10;;;30.27;;
41897;SDS011;27576;53.366;-1.498;2024-03-17T01:10:56;46.35;;;27.60;;
41897;SDS011;27576;53.366;-1.498;2024-03-17T01:13:23;48.97;;;27.60;;
41897;SDS011;27576;53.366;-1.498;2024-03-17T01:15:51;50.17;;;28.42;;
41897;SDS011;27576;53.366;-1.498;2024-03-17T01:18:18;57.05;;;29.48;;
41897;SDS011;27576;53.366;-1.498;2024-03-17T01:20:44;51.08;;;28.15;;
41897;SDS011;27576;53.366;-1.498;2024-03-17T01:23:09;47.83;;;27.42;;
41897;SDS011;27576;53.366;-1.498;2024-03-17T01:25:35;43.85;;;26.15;;
41897;SDS011;27576;53.366;-1.498;2024-03-17T01:28:02;44.38;;;25.75;;
41897;SDS011;27576;53.366;-1.498;2024-03-17T01:30:28;43.40;;;25.80;;
41897;SDS011;27576;53.366;-1.498;2024-03-17T01:32:54;49.13;;;27.85;;
41897;SDS011;27576;53.366;-1.498;2024-03-17T01:35:20;53.90;;;27.35;;
41897;SDS011;27576;53.366;-1.498;2024-03-17T01:37:45;49.80;;;27.20;;
41897;SDS011;27576;53.366;-1.498;2024-03-17T01:40:11;41.65;;;24.52;;
41897;SDS011;27576;53.366;-1.498;2024-03-17T01:42:40;44.55;;;26.17;;
41897;SDS011;27576;53.366;-1.498;2024-03-17T01:47:57;42.67;;;23.40;;
41897;SDS011;27576;53.366;-1.498;2024-03-17T01:50:28;42.55;;;23.23;;
41897;SDS011;27576;53.366;-1.498;2024-03-17T01:53:00;52.03;;;25.75;;
41897;SDS011;27576;53.366;-1.498;2024-03-17T01:55:30;56.22;;;26.52;;
41897;SDS011;27576;53.366;-1.498;2024-03-17T01:57:56;40.58;;;23.40;;
41897;SDS011;27576;53.366;-1.498;2024-03-17T02:00:21;50.45;;;26.27;;
41897;SDS011;27576;53.366;-1.498;2024-03-17T02:02:48;44.15;;;24.73;;
41897;SDS011;27576;53.366;-1.498;2024-03-17T02:05:13;45.47;;;24.42;;
41897;SDS011;27576;53.366;-1.498;2024-03-17T02:07:38;43.05;;;25.13;;
41897;SDS011;27576;53.366;-1.498;2024-03-17T02:10:05;42.90;;;26.50;;
41897;SDS011;27576;53.366;-1.498;2024-03-17T02:12:31;44.85;;;26.98;;
41897;SDS011;27576;53.366;-1.498;2024-03-17T02:14:59;45.40;;;25.52;;
41897;SDS011;27576;53.366;-1.498;2024-03-17T02:17:25;45.92;;;25.83;;
41897;SDS011;27576;53.366;-1.498;2024-03-17T02:19:53;41.33;;;24.85;;
41897;SDS011;27576;53.366;-1.498;2024-03-17T02:22:19;52.38;;;26.17;;
41897;SDS011;27576;53.366;-1.498;2024-03-17T02:24:44;46.78;;;25.58;;
41897;SDS011;27576;53.366;-1.498;2024-03-17T02:27:10;47.03;;;23.33;;
41897;SDS011;27576;53.366;-1.498;2024-03-17T02:29:36;43.30;;;25.08;;
41897;SDS011;27576;53.366;-1.498;2024-03-17T02:32:04;45.33;;;25.13;;
41897;SDS011;27576;53.366;-1.498;2024-03-17T02:34:35;49.25;;;28.08;;
41897;SDS011;27576;53.366;-1.498;2024-03-17T02:37:01;48.47;;;25.90;;
41897;SDS011;27576;53.366;-1.498;2024-03-17T02:39:28;50.78;;;28.48;;
41897;SDS011;27576;53.366;-1.498;2024-03-17T02:42:03;48.33;;;27.45;;
41897;SDS011;27576;53.366;-1.498;2024-03-17T02:44:32;54.55;;;25.52;;
41897;SDS011;27576;53.366;-1.498;2024-03-17T02:46:59;56.22;;;28.17;;
41897;SDS011;27576;53.366;-1.498;2024-03-17T02:49:25;50.50;;;27.02;;
41897;SDS011;27576;53.366;-1.498;2024-03-17T02:51:52;43.03;;;25.63;;
41897;SDS011;27576;53.366;-1.498;2024-03-17T02:54:21;48.20;;;25.42;;
41897;SDS011;27576;53.366;-1.498;2024-03-17T02:56:48;46.58;;;23.42;;
41897;SDS011;27576;53.366;-1.498;2024-03-17T02:59:13;53.90;;;23.65;;
41897;SDS011;27576;53.366;-1.498;2024-03-17T03:01:39;38.10;;;20.95;;
41897;SDS011;27576;53.366;-1.498;2024-03-17T03:04:05;37.60;;;19.10;;
41897;SDS011;27576;53.366;-1.498;2024-03-17T03:06:31;43.10;;;19.75;;
41897;SDS011;27576;53.366;-1.498;2024-03-17T03:08:57;50.08;;;21.30;;
41897;SDS011;27576;53.366;-1.498;2024-03-17T03:11:23;44.58;;;20.67;;
41897;SDS011;27576;53.366;-1.498;2024-03-17T03:13:48;45.95;;;21.70;;
41897;SDS011;27576;53.366;-1.498;2024-03-17T03:16:14;41.55;;;20.25;;
41897;SDS011;27576;53.366;-1.498;2024-03-17T03:18:39;45.38;;;20.75;;
41897;SDS011;27576;53.366;-1.498;2024-03-17T03:21:05;46.30;;;20.13;;
41897;SDS011;27576;53.366;-1.498;2024-03-17T03:23:31;49.72;;;19.60;;
41897;SDS011;27576;53.366;-1.498;2024-03-17T03:25:57;38.38;;;18.60;;
41897;SDS011;27576;53.366;-1.498;2024-03-17T03:28:24;42.45;;;18.90;;
41897;SDS011;27576;53.366;-1.498;2024-03-17T03:30:51;46.17;;;19.35;;
41897;SDS011;27576;53.366;-1.498;2024-03-17T03:33:17;38.85;;;16.83;;
41897;SDS011;27576;53.366;-1.498;2024-03-17T03:35:43;33.60;;;15.77;;
41897;SDS011;27576;53.366;-1.498;2024-03-17T03:38:10;36.80;;;17.00;;
41897;SDS011;27576;53.366;-1.498;2024-03-17T03:40:36;32.65;;;17.13;;
41897;SDS011;27576;53.366;-1.498;2024-03-17T03:43:01;39.83;;;17.08;;
41897;SDS011;27576;53.366;-1.498;2024-03-17T03:45:27;34.00;;;15.63;;
41897;SDS011;27576;53.366;-1.498;2024-03-17T03:47:53;38.92;;;16.35;;
41897;SDS011;27576;53.366;-1.498;2024-03-17T03:50:20;37.95;;;16.25;;
41897;SDS011;27576;53.366;-1.498;2024-03-17T03:52:46;33.63;;;15.00;;
41897;SDS011;27576;53.366;-1.498;2024-03-17T03:55:12;32.20;;;15.90;;
41897;SDS011;27576;53.366;-1.498;2024-03-17T03:57:41;38.13;;;15.48;;
41897;SDS011;27576;53.366;-1.498;2024-03-17T04:00:11;31.45;;;14.43;;
41897;SDS011;27576;53.366;-1.498;2024-03-17T04:02:40;37.15;;;15.10;;
41897;SDS011;27576;53.366;-1.498;2024-03-17T04:05:08;31.33;;;14.40;;
41897;SDS011;27576;53.366;-1.498;2024-03-17T04:07:34;28.17;;;14.02;;
41897;SDS011;27576;53.366;-1.498;2024-03-17T04:10:01;28.85;;;15.00;;
41897;SDS011;27576;53.366;-1.498;2024-03-17T04:12:27;31.60;;;14.82;;
41897;SDS011;27576;53.366;-1.498;2024-03-17T04:14:53;30.02;;;13.85;;
41897;SDS011;27576;53.366;-1.498;2024-03-17T04:17:20;31.05;;;14.07;;
41897;SDS011;27576;53.366;-1.498;2024-03-17T04:19:48;27.92;;;13.32;;
41897;SDS011;27576;53.366;-1.498;2024-03-17T04:22:15;20.02;;;11.55;;
41897;SDS011;27576;53.366;-1.498;2024-03-17T04:24:48;24.05;;;11.75;;
41897;SDS011;27576;53.366;-1.498;2024-03-17T04:27:21;25.88;;;11.63;;
41897;SDS011;27576;53.366;-1.498;2024-03-17T04:29:48;20.08;;;11.27;;
41897;SDS011;27576;53.366;-1.498;2024-03-17T04:32:14;24.73;;;11.07;;
41897;SDS011;27576;53.366;-1.498;2024-03-17T04:34:39;22.08;;;10.48;;
41897;SDS011;27576;53.366;-1.498;2024-03-17T04:37:05;17.30;;;10.50;;
41897;SDS011;27576;53.366;-1.498;2024-03-17T04:39:30;15.60;;;10.18;;
41897;SDS011;27576;53.366;-1.498;2024-03-17T04:41:56;17.15;;;9.90;;
41897;SDS011;27576;53.366;-1.498;2024-03-17T04:44:22;21.17;;;10.43;;
41897;SDS011;27576;53.366;-1.498;2024-03-17T04:46:47;21.75;;;10.32;;
41897;SDS011;27576;53.366;-1.498;2024-03-17T04:49:13;20.50;;;9.98;;
41897;SDS011;27576;53.366;-1.498;2024-03-17T04:51:38;19.23;;;10.93;;
41897;SDS011;27576;53.366;-1.498;2024-03-17T04:54:04;16.67;;;9.80;;
41897;SDS011;27576;53.366;-1.498;2024-03-17T04:56:32;25.67;;;10.05;;
41897;SDS011;27576;53.366;-1.498;2024-03-17T04:58:57;18.00;;;10.05;;
41897;SDS011;27576;53.366;-1.498;2024-03-17T05:01:23;19.90;;;9.45;;
41897;SDS011;27576;53.366;-1.498;2024-03-17T05:03:51;18.88;;;10.38;;
41897;SDS011;27576;53.366;-1.498;2024-03-17T05:06:17;22.58;;;12.82;;
41897;SDS011;27576;53.366;-1.498;2024-03-17T05:08:42;23.70;;;12.13;;
41897;SDS011;27576;53.366;-1.498;2024-03-17T05:11:08;19.02;;;10.02;;
41897;SDS011;27576;53.366;-1.498;2024-03-17T05:13:34;24.25;;;10.77;;
41897;SDS011;27576;53.366;-1.498;2024-03-17T05:16:01;24.58;;;11.70;;
41897;SDS011;27576;53.366;-1.498;2024-03-17T05:18:28;18.08;;;9.48;;
41897;SDS011;27576;53.366;-1.498;2024-03-17T05:21:06;22.30;;;10.68;;
41897;SDS011;27576;53.366;-1.498;2024-03-17T05:23:34;22.55;;;9.82;;
41897;SDS011;27576;53.366;-1.498;2024-03-17T05:26:00;19.60;;;8.93;;
41897;SDS011;27576;53.366;-1.498;2024-03-17T05:28:29;17.55;;;8.80;;
41897;SDS011;27576;53.366;-1.498;2024-03-17T05:30:55;13.07;;;7.70;;
41897;SDS011;27576;53.366;-1.498;2024-03-17T05:33:22;13.65;;;7.85;;
41897;SDS011;27576;53.366;-1.498;2024-03-17T05:35:49;14.70;;;7.72;;
41897;SDS011;27576;53.366;-1.498;2024-03-17T05:38:21;12.00;;;6.03;;
41897;SDS011;27576;53.366;-1.498;2024-03-17T05:40:55;10.98;;;5.45;;
41897;SDS011;27576;53.366;-1.498;2024-03-17T05:43:25;9.10;;;5.13;;
41897;SDS011;27576;53.366;-1.498;2024-03-17T05:45:52;9.15;;;4.57;;
41897;SDS011;27576;53.366;-1.498;2024-03-17T05:48:18;12.32;;;4.20;;
41897;SDS011;27576;53.366;-1.498;2024-03-17T05:50:44;8.13;;;4.38;;
41897;SDS011;27576;53.366;-1.498;2024-03-17T05:53:09;6.90;;;3.95;;
41897;SDS011;27576;53.366;-1.498;2024-03-17T05:55:35;4.95;;;3.83;;
41897;SDS011;27576;53.366;-1.498;2024-03-17T05:58:01;7.22;;;3.80;;
41897;SDS011;27576;53.366;-1.498;2024-03-17T06:00:27;8.25;;;3.88;;
41897;SDS011;27576;53.366;-1.498;2024-03-17T06:02:52;6.43;;;3.10;;
41897;SDS011;27576;53.366;-1.498;2024-03-17T06:05:18;6.90;;;2.78;;
41897;SDS011;27576;53.366;-1.498;2024-03-17T06:07:43;5.75;;;3.10;;
41897;SDS011;27576;53.366;-1.498;2024-03-17T06:10:08;6.15;;;3.20;;
41897;SDS011;27576;53.366;-1.498;2024-03-17T06:12:34;4.45;;;2.70;;
41897;SDS011;27576;53.366;-1.498;2024-03-17T06:14:59;4.55;;;2.55;;
41897;SDS011;27576;53.366;-1.498;2024-03-17T06:17:27;3.83;;;2.03;;
41897;SDS011;27576;53.366;-1.498;2024-03-17T06:19:53;4.20;;;2.10;;
41897;SDS011;27576;53.366;-1.498;2024-03-17T06:22:18;6.45;;;1.95;;
41897;SDS011;27576;53.366;-1.498;2024-03-17T06:24:43;6.70;;;1.98;;
41897;SDS011;27576;53.366;-1.498;2024-03-17T06:27:09;3.30;;;1.77;;
41897;SDS011;27576;53.366;-1.498;2024-03-17T06:29:34;2.85;;;1.80;;
41897;SDS011;27576;53.366;-1.498;2024-03-17T06:31:59;3.38;;;1.70;;
41897;SDS011;27576;53.366;-1.498;2024-03-17T06:34:25;2.88;;;1.88;;
41897;SDS011;27576;53.366;-1.498;2024-03-17T06:36:51;2.55;;;1.70;;
41897;SDS011;27576;53.366;-1.498;2024-03-17T06:39:16;2.20;;;1.50;;
41897;SDS011;27576;53.366;-1.498;2024-03-17T06:41:44;3.72;;;1.67;;
41897;SDS011;27576;53.366;-1.498;2024-03-17T06:44:10;2.50;;;1.50;;
41897;SDS011;27576;53.366;-1.498;2024-03-17T06:46:35;4.93;;;1.60;;
41897;SDS011;27576;53.366;-1.498;2024-03-17T06:49:00;3.80;;;2.00;;
41897;SDS011;27576;53.366;-1.498;2024-03-17T06:51:26;3.70;;;1.73;;
41897;SDS011;27576;53.366;-1.498;2024-03-17T06:53:51;3.22;;;1.88;;
41897;SDS011;27576;53.366;-1.498;2024-03-17T06:56:16;3.78;;;1.90;;
41897;SDS011;27576;53.366;-1.498;2024-03-17T06:58:42;3.65;;;2.10;;
41897;SDS011;27576;53.366;-1.498;2024-03-17T07:01:07;6.63;;;2.38;;
41897;SDS011;27576;53.366;-1.498;2024-03-17T07:03:34;5.90;;;2.50;;
41897;SDS011;27576;53.366;-1.498;2024-03-17T07:06:00;6.07;;;2.90;;
41897;SDS011;27576;53.366;-1.498;2024-03-17T07:08:29;13.23;;;2.80;;
41897;SDS011;27576;53.366;-1.498;2024-03-17T07:10:59;3.50;;;2.80;;
41897;SDS011;27576;53.366;-1.498;2024-03-17T07:13:28;3.10;;;2.78;;
41897;SDS011;27576;53.366;-1.498;2024-03-17T07:15:55;3.63;;;2.72;;
41897;SDS011;27576;53.366;-1.498;2024-03-17T07:18:21;5.75;;;3.28;;
41897;SDS011;27576;53.366;-1.498;2024-03-17T07:20:46;11.25;;;5.47;;
41897;SDS011;27576;53.366;-1.498;2024-03-17T07:23:13;9.32;;;5.30;;
41897;SDS011;27576;53.366;-1.498;2024-03-17T07:25:40;10.32;;;3.80;;
41897;SDS011;27576;53.366;-1.498;2024-03-17T07:28:05;3.63;;;3.10;;
41897;SDS011;27576;53.366;-1.498;2024-03-17T07:30:31;5.55;;;2.60;;
41897;SDS011;27576;53.366;-1.498;2024-03-17T07:32:56;3.95;;;2.45;;
41897;SDS011;27576;53.366;-1.498;2024-03-17T07:35:22;4.10;;;3.00;;
41897;SDS011;27576;53.366;-1.498;2024-03-17T07:37:48;3.65;;;3.10;;
41897;SDS011;27576;53.366;-1.498;2024-03-17T07:40:13;4.60;;;3.10;;
41897;SDS011;27576;53.366;-1.498;2024-03-17T07:42:40;5.85;;;3.63;;
41897;SDS011;27576;53.366;-1.498;2024-03-17T07:45:06;4.80;;;3.08;;
41897;SDS011;27576;53.366;-1.498;2024-03-17T07:47:32;5.82;;;3.28;;
41897;SDS011;27576;53.366;-1.498;2024-03-17T07:50:03;6.38;;;3.17;;
41897;SDS011;27576;53.366;-1.498;2024-03-17T07:52:30;4.25;;;3.00;;
41897;SDS011;27576;53.366;-1.498;2024-03-17T07:54:58;4.55;;;2.70;;
41897;SDS011;27576;53.366;-1.498;2024-03-17T07:57:24;5.60;;;3.10;;
41897;SDS011;27576;53.366;-1.498;2024-03-17T07:59:50;5.45;;;3.03;;
41897;SDS011;27576;53.366;-1.498;2024-03-17T08:02:16;5.65;;;2.58;;
41897;SDS011;27576;53.366;-1.498;2024-03-17T08:04:41;3.25;;;2.63;;
41897;SDS011;27576;53.366;-1.498;2024-03-17T08:07:07;8.52;;;3.33;;
41897;SDS011;27576;53.366;-1.498;2024-03-17T08:09:33;5.85;;;3.53;;
41897;SDS011;27576;53.366;-1.498;2024-03-17T08:11:58;6.07;;;3.53;;
41897;SDS011;27576;53.366;-1.498;2024-03-17T08:14:23;9.75;;;6.13;;
41897;SDS011;27576;53.366;-1.498;2024-03-17T08:16:49;5.97;;;4.00;;
41897;SDS011;27576;53.366;-1.498;2024-03-17T08:19:14;10.43;;;5.20;;
41897;SDS011;27576;53.366;-1.498;2024-03-17T08:21:39;4.40;;;3.72;;
41897;SDS011;27576;53.366;-1.498;2024-03-17T08:24:05;5.43;;;3.63;;
41897;SDS011;27576;53.366;-1.498;2024-03-17T08:26:30;5.47;;;4.50;;
41897;SDS011;27576;53.366;-1.498;2024-03-17T08:28:56;6.07;;;4.30;;
41897;SDS011;27576;53.366;-1.498;2024-03-17T08:31:22;4.78;;;3.67;;
41897;SDS011;27576;53.366;-1.498;2024-03-17T08:33:47;7.63;;;2.80;;
41897;SDS011;27576;53.366;-1.498;2024-03-17T08:36:12;4.75;;;2.90;;
41897;SDS011;27576;53.366;-1.498;2024-03-17T08:38:42;5.75;;;2.80;;
41897;SDS011;27576;53.366;-1.498;2024-03-17T08:41:08;2.83;;;2.47;;
41897;SDS011;27576;53.366;-1.498;2024-03-17T08:43:35;4.15;;;1.92;;
41897;SDS011;27576;53.366;-1.498;2024-03-17T08:46:05;2.75;;;2.30;;
41897;SDS011;27576;53.366;-1.498;2024-03-17T08:48:35;3.50;;;1.98;;
41897;SDS011;27576;53.366;-1.498;2024-03-17T08:51:02;4.32;;;1.98;;
41897;SDS011;27576;53.366;-1.498;2024-03-17T08:53:29;2.88;;;1.80;;
41897;SDS011;27576;53.366;-1.498;2024-03-17T08:55:55;2.08;;;1.77;;
41897;SDS011;27576;53.366;-1.498;2024-03-17T08:58:22;1.92;;;1.70;;
41897;SDS011;27576;53.366;-1.498;2024-03-17T09:00:48;3.53;;;1.75;;
41897;SDS011;27576;53.366;-1.498;2024-03-17T09:03:13;1.55;;;1.45;;
41897;SDS011;27576;53.366;-1.498;2024-03-17T09:05:40;3.40;;;1.70;;
41897;SDS011;27576;53.366;-1.498;2024-03-17T09:08:07;3.85;;;1.80;;
41897;SDS011;27576;53.366;-1.498;2024-03-17T09:10:42;2.75;;;1.70;;
41897;SDS011;27576;53.366;-1.498;2024-03-17T09:13:18;2.85;;;1.70;;
41897;SDS011;27576;53.366;-1.498;2024-03-17T09:15:55;1.98;;;1.65;;
41897;SDS011;27576;53.366;-1.498;2024-03-17T09:18:30;3.08;;;1.40;;
41897;SDS011;27576;53.366;-1.498;2024-03-17T09:21:03;1.55;;;1.45;;
41897;SDS011;27576;53.366;-1.498;2024-03-17T09:23:33;1.55;;;1.45;;
41897;SDS011;27576;53.366;-1.498;2024-03-17T09:28:26;1.67;;;1.10;;
41897;SDS011;27576;53.366;-1.498;2024-03-17T09:30:52;1.77;;;1.30;;
41897;SDS011;27576;53.366;-1.498;2024-03-17T09:33:21;1.55;;;1.23;;
41897;SDS011;27576;53.366;-1.498;2024-03-17T09:36:00;2.90;;;1.45;;
41897;SDS011;27576;53.366;-1.498;2024-03-17T09:38:28;1.58;;;1.48;;
41897;SDS011;27576;53.366;-1.498;2024-03-17T09:40:54;1.50;;;1.40;;
41897;SDS011;27576;53.366;-1.498;2024-03-17T09:43:23;1.65;;;1.55;;
41897;SDS011;27576;53.366;-1.498;2024-03-17T09:45:50;2.80;;;1.63;;
41897;SDS011;27576;53.366;-1.498;2024-03-17T09:48:20;1.88;;;1.70;;
41897;SDS011;27576;53.366;-1.498;2024-03-17T09:50:55;1.98;;;1.80;;
41897;SDS011;27576;53.366;-1.498;2024-03-17T09:53:25;2.35;;;1.95;;
41897;SDS011;27576;53.366;-1.498;2024-03-17T09:55:52;1.60;;;1.50;;
41897;SDS011;27576;53.366;-1.498;2024-03-17T09:58:30;1.77;;;1.67;;
41897;SDS011;27576;53.366;-1.498;2024-03-17T10:00:55;2.00;;;1.90;;
41897;SDS011;27576;53.366;-1.498;2024-03-17T10:06:08;2.85;;;2.30;;
41897;SDS011;27576;53.366;-1.498;2024-03-17T10:11:08;2.70;;;2.50;;
41897;SDS011;27576;53.366;-1.498;2024-03-17T10:13:33;2.72;;;2.55;;
41897;SDS011;27576;53.366;-1.498;2024-03-17T10:15:59;3.08;;;2.70;;
41897;SDS011;27576;53.366;-1.498;2024-03-17T10:18:24;2.38;;;2.17;;
41897;SDS011;27576;53.366;-1.498;2024-03-17T10:20:50;2.60;;;2.40;;
41897;SDS011;27576;53.366;-1.498;2024-03-17T10:23:20;3.15;;;2.85;;
41897;SDS011;27576;53.366;-1.498;2024-03-17T10:25:45;1.92;;;1.83;;
41897;SDS011;27576;53.366;-1.498;2024-03-17T10:28:11;4.03;;;2.00;;
41897;SDS011;27576;53.366;-1.498;2024-03-17T10:30:38;3.58;;;2.17;;
41897;SDS011;27576;53.366;-1.498;2024-03-17T10:33:05;6.45;;;4.00;;
41897;SDS011;27576;53.366;-1.498;2024-03-17T10:35:33;2.88;;;2.28;;
41897;SDS011;27576;53.366;-1.498;2024-03-17T10:38:03;2.33;;;1.73;;
41897;SDS011;27576;53.366;-1.498;2024-03-17T10:40:30;2.95;;;1.25;;
41897;SDS011;27576;53.366;-1.498;2024-03-17T10:42:59;1.63;;;1.52;;
41897;SDS011;27576;53.366;-1.498;2024-03-17T10:45:25;3.25;;;1.60;;
41897;SDS011;27576;53.366;-1.498;2024-03-17T10:47:51;1.45;;;1.35;;
41897;SDS011;27576;53.366;-1.498;2024-03-17T10:50:21;1.67;;;1.33;;
41897;SDS011;27576;53.366;-1.498;2024-03-17T10:52:49;2.97;;;1.73;;
41897;SDS011;27576;53.366;-1.498;2024-03-17T10:55:25;1.40;;;1.30;;
41897;SDS011;27576;53.366;-1.498;2024-03-17T10:57:52;1.20;;;1.10;;
41897;SDS011;27576;53.366;-1.498;2024-03-17T11:00:19;1.52;;;1.15;;
41897;SDS011;27576;53.366;-1.498;2024-03-17T11:02:49;2.25;;;1.10;;
41897;SDS011;27576;53.366;-1.498;2024-03-17T11:07:55;1.30;;;1.02;;
41897;SDS011;27576;53.366;-1.498;2024-03-17T11:10:25;1.10;;;1.00;;
41897;SDS011;27576;53.366;-1.498;2024-03-17T11:12:57;1.10;;;1.00;;
41897;SDS011;27576;53.366;-1.498;2024-03-17T11:17:50;1.52;;;1.20;;
41897;SDS011;27576;53.366;-1.498;2024-03-17T11:20:19;2.08;;;1.63;;
41897;SDS011;27576;53.366;-1.498;2024-03-17T11:22:51;1.30;;;1.20;;
41897;SDS011;27576;53.366;-1.498;2024-03-17T11:27:55;0.93;;;0.93;;
41897;SDS011;27576;53.366;-1.498;2024-03-17T11:33:50;1.40;;;0.90;;
41897;SDS011;27576;53.366;-1.498;2024-03-17T11:41:48;1.60;;;0.85;;
41897;SDS011;27576;53.366;-1.498;2024-03-17T11:51:48;0.88;;;0.88;;
41897;SDS011;27576;53.366;-1.498;2024-03-17T11:54:21;1.95;;;0.70;;
41897;SDS011;27576;53.366;-1.498;2024-03-17T11:56:49;1.63;;;0.90;;
41897;SDS011;27576;53.366;-1.498;2024-03-17T11:59:16;1.58;;;0.63;;
41897;SDS011;27576;53.366;-1.498;2024-03-17T12:01:45;0.65;;;0.65;;
41897;SDS011;27576;53.366;-1.498;2024-03-17T12:04:13;1.08;;;0.63;;
41897;SDS011;27576;53.366;-1.498;2024-03-17T12:06:39;0.50;;;0.50;;
41897;SDS011;27576;53.366;-1.498;2024-03-17T12:09:21;0.50;;;0.43;;
41897;SDS011;27576;53.366;-1.498;2024-03-17T12:11:47;2.08;;;0.93;;
41897;SDS011;27576;53.366;-1.498;2024-03-17T12:14:15;1.38;;;0.70;;
41897;SDS011;27576;53.366;-1.498;2024-03-17T12:16:51;1.55;;;1.45;;
41897;SDS011;27576;53.366;-1.498;2024-03-17T12:19:18;2.03;;;1.20;;
41897;SDS011;27576;53.366;-1.498;2024-03-17T12:21:45;6.03;;;0.70;;
41897;SDS011;27576;53.366;-1.498;2024-03-17T12:24:14;0.75;;;0.50;;
41897;SDS011;27576;53.366;-1.498;2024-03-17T12:26:43;2.30;;;1.42;;
41897;SDS011;27576;53.366;-1.498;2024-03-17T12:31:52;11.13;;;8.73;;
41897;SDS011;27576;53.366;-1.498;2024-03-17T12:34:19;6.93;;;5.38;;
41897;SDS011;27576;53.366;-1.498;2024-03-17T12:36:45;1.42;;;1.33;;
41897;SDS011;27576;53.366;-1.498;2024-03-17T12:39:34;1.02;;;0.93;;
41897;SDS011;27576;53.366;-1.498;2024-03-17T12:44:32;5.00;;;4.50;;
41897;SDS011;27576;53.366;-1.498;2024-03-17T12:46:59;1.20;;;1.00;;
41897;SDS011;27576;53.366;-1.498;2024-03-17T12:49:29;1.92;;;1.10;;
41897;SDS011;27576;53.366;-1.498;2024-03-17T12:51:56;0.85;;;0.70;;
41897;SDS011;27576;53.366;-1.498;2024-03-17T12:54:25;2.67;;;0.70;;
41897;SDS011;27576;53.366;-1.498;2024-03-17T12:57:02;0.88;;;0.65;;
41897;SDS011;27576;53.366;-1.498;2024-03-17T12:59:50;2.25;;;0.80;;
41897;SDS011;27576;53.366;-1.498;2024-03-17T13:02:34;0.98;;;0.80;;
41897;SDS011;27576;53.366;-1.498;2024-03-17T13:07:31;1.30;;;0.70;;
41897;SDS011;27576;53.366;-1.498;2024-03-17T13:09:56;1.20;;;0.50;;
41897;SDS011;27576;53.366;-1.498;2024-03-17T13:12:22;0.70;;;0.60;;
41897;SDS011;27576;53.366;-1.498;2024-03-17T13:14:47;0.75;;;0.60;;
41897;SDS011;27576;53.366;-1.498;2024-03-17T13:17:14;0.90;;;0.77;;
41897;SDS011;27576;53.366;-1.498;2024-03-17T13:19:47;0.60;;;0.60;;
41897;SDS011;27576;53.366;-1.498;2024-03-17T13:22:13;0.60;;;0.60;;
41897;SDS011;27576;53.366;-1.498;2024-03-17T13:24:39;0.95;;;0.70;;
41897;SDS011;27576;53.366;-1.498;2024-03-17T13:27:04;1.85;;;0.70;;
41897;SDS011;27576;53.366;-1.498;2024-03-17T13:29:34;0.90;;;0.80;;
41897;SDS011;27576;53.366;-1.498;2024-03-17T13:32:03;1.10;;;0.80;;
41897;SDS011;27576;53.366;-1.498;2024-03-17T13:34:30;2.15;;;0.80;;
41897;SDS011;27576;53.366;-1.498;2024-03-17T13:36:58;2.78;;;1.45;;
41897;SDS011;27576;53.366;-1.498;2024-03-17T13:39:29;2.25;;;0.80;;
41897;SDS011;27576;53.366;-1.498;2024-03-17T13:41:58;2.40;;;1.65;;
41897;SDS011;27576;53.366;-1.498;2024-03-17T13:44:31;2.55;;;1.52;;
41897;SDS011;27576;53.366;-1.498;2024-03-17T13:46:58;1.50;;;0.80;;
41897;SDS011;27576;53.366;-1.498;2024-03-17T13:49:24;0.68;;;0.68;;
41897;SDS011;27576;53.366;-1.498;2024-03-17T13:51:51;1.45;;;0.88;;
41897;SDS011;27576;53.366;-1.498;2024-03-17T13:54:17;1.73;;;0.70;;
41897;SDS011;27576;53.366;-1.498;2024-03-17T13:56:46;0.52;;;0.50;;
41897;SDS011;27576;53.366;-1.498;2024-03-17T13:59:12;0.65;;;0.65;;
41897;SDS011;27576;53.366;-1.498;2024-03-17T14:01:37;0.50;;;0.50;;
41897;SDS011;27576;53.366;-1.498;2024-03-17T14:04:03;1.05;;;0.40;;
41897;SDS011;27576;53.366;-1.498;2024-03-17T14:06:28;0.50;;;0.50;;
41897;SDS011;27576;53.366;-1.498;2024-03-17T14:08:53;0.65;;;0.50;;
41897;SDS011;27576;53.366;-1.498;2024-03-17T14:11:19;0.43;;;0.43;;
41897;SDS011;27576;53.366;-1.498;2024-03-17T14:13:44;0.40;;;0.40;;
41897;SDS011;27576;53.366;-1.498;2024-03-17T14:16:09;1.23;;;0.60;;
41897;SDS011;27576;53.366;-1.498;2024-03-17T14:18:36;0.40;;;0.40;;
41897;SDS011;27576;53.366;-1.498;2024-03-17T14:21:01;2.00;;;0.40;;
41897;SDS011;27576;53.366;-1.498;2024-03-17T14:23:27;0.63;;;0.40;;
41897;SDS011;27576;53.366;-1.498;2024-03-17T14:25:55;1.40;;;0.50;;
41897;SDS011;27576;53.366;-1.498;2024-03-17T14:28:20;1.42;;;0.38;;
41897;SDS011;27576;53.366;-1.498;2024-03-17T14:30:47;0.95;;;0.28;;
41897;SDS011;27576;53.366;-1.498;2024-03-17T14:33:12;0.47;;;0.47;;
41897;SDS011;27576;53.366;-1.498;2024-03-17T14:35:37;1.48;;;0.60;;
41897;SDS011;27576;53.366;-1.498;2024-03-17T14:38:03;0.77;;;0.43;;
41897;SDS011;27576;53.366;-1.498;2024-03-17T14:40:29;0.55;;;0.50;;
41897;SDS011;27576;53.366;-1.498;2024-03-17T14:42:55;0.40;;;0.40;;
41897;SDS011;27576;53.366;-1.498;2024-03-17T14:45:21;0.40;;;0.40;;
41897;SDS011;27576;53.366;-1.498;2024-03-17T14:47:49;0.55;;;0.40;;
41897;SDS011;27576;53.366;-1.498;2024-03-17T14:50:16;1.65;;;0.60;;
41897;SDS011;27576;53.366;-1.498;2024-03-17T14:52:42;0.65;;;0.40;;
41897;SDS011;27576;53.366;-1.498;2024-03-17T14:55:08;0.50;;;0.50;;
41897;SDS011;27576;53.366;-1.498;2024-03-17T14:57:38;0.50;;;0.50;;
41897;SDS011;27576;53.366;-1.498;2024-03-17T15:00:08;2.28;;;0.45;;
41897;SDS011;27576;53.366;-1.498;2024-03-17T15:02:44;2.08;;;0.70;;
41897;SDS011;27576;53.366;-1.498;2024-03-17T15:05:13;0.50;;;0.40;;